sensor_id;sensor_type;location;lat;lon;timestamp;P1;durP1;ratioP1;P2;durP2;ratioP2
59504;SDS011;45321;53.200;5.814;2023-11-21T00:01:18;10.30;;;4.35;;
59504;SDS011;45321;53.200;5.814;2023-11-21T00:03:44;10.57;;;4.10;;
59504;SDS011;45321;53.200;5.814;2023-11-21T00:06:10;7.07;;;4.00;;
59504;SDS011;45321;53.200;5.814;2023-11-21T00:08:36;10.30;;;4.43;;
59504;SDS011;45321;53.200;5.814;2023-11-21T00:11:02;7.82;;;3.78;;
59504;SDS011;45321;53.200;5.814;2023-11-21T00:13:31;8.57;;;4.18;;
59504;SDS011;45321;53.200;5.814;2023-11-21T00:15:57;9.90;;;3.90;;
59504;SDS011;45321;53.200;5.814;2023-11-21T00:18:23;7.88;;;3.83;;
59504;SDS011;45321;53.200;5.814;2023-11-21T00:20:49;10.85;;;4.13;;
59504;SDS011;45321;53.200;5.814;2023-11-21T00:23:15;6.10;;;3.67;;
59504;SDS011;45321;53.200;5.814;2023-11-21T00:25:40;11.13;;;4.82;;
59504;SDS011;45321;53.200;5.814;2023-11-21T00:28:06;6.93;;;3.88;;
59504;SDS011;45321;53.200;5.814;2023-11-21T00:30:32;8.00;;;4.20;;
59504;SDS011;45321;53.200;5.814;2023-11-21T00:32:58;8.82;;;3.92;;
59504;SDS011;45321;53.200;5.814;2023-11-21T00:35:24;8.00;;;3.50;;
59504;SDS011;45321;53.200;5.814;2023-11-21T00:37:49;9.25;;;3.78;;
59504;SDS011;45321;53.200;5.814;2023-11-21T00:40:15;6.35;;;3.45;;
59504;SDS011;45321;53.200;5.814;2023-11-21T00:42:44;7.30;;;3.85;;
59504;SDS011;45321;53.200;5.814;2023-11-21T00:45:10;7.68;;;4.03;;
59504;SDS011;45321;53.200;5.814;2023-11-21T00:47:36;9.57;;;4.13;;
59504;SDS011;45321;53.200;5.814;2023-11-21T00:50:03;6.80;;;4.15;;
59504;SDS011;45321;53.200;5.814;2023-11-21T00:52:31;6.95;;;3.85;;
59504;SDS011;45321;53.200;5.814;2023-11-21T00:54:57;9.13;;;4.10;;
59504;SDS011;45321;53.200;5.814;2023-11-21T00:57:25;8.43;;;3.70;;
59504;SDS011;45321;53.200;5.814;2023-11-21T00:59:51;6.63;;;3.35;;
59504;SDS011;45321;53.200;5.814;2023-11-21T01:02:18;7.18;;;4.00;;
59504;SDS011;45321;53.200;5.814;2023-11-21T01:04:43;6.50;;;3.53;;
59504;SDS011;45321;53.200;5.814;2023-11-21T01:07:09;7.30;;;3.17;;
59504;SDS011;45321;53.200;5.814;2023-11-21T01:09:35;8.10;;;3.40;;
59504;SDS011;45321;53.200;5.814;2023-11-21T01:12:00;7.93;;;3.35;;
59504;SDS011;45321;53.200;5.814;2023-11-21T01:14:26;11.90;;;3.70;;
59504;SDS011;45321;53.200;5.814;2023-11-21T01:16:52;10.32;;;3.83;;
59504;SDS011;45321;53.200;5.814;2023-11-21T01:19:18;8.73;;;4.40;;
59504;SDS011;45321;53.200;5.814;2023-11-21T01:21:47;13.85;;;4.55;;
59504;SDS011;45321;53.200;5.814;2023-11-21T01:24:12;9.38;;;4.80;;
59504;SDS011;45321;53.200;5.814;2023-11-21T01:26:38;70.00;;;58.80;;
59504;SDS011;45321;53.200;5.814;2023-11-21T01:29:04;26.33;;;14.73;;
59504;SDS011;45321;53.200;5.814;2023-11-21T01:31:30;18.45;;;6.70;;
59504;SDS011;45321;53.200;5.814;2023-11-21T01:33:56;19.42;;;6.05;;
59504;SDS011;45321;53.200;5.814;2023-11-21T01:36:22;19.73;;;5.57;;
59504;SDS011;45321;53.200;5.814;2023-11-21T01:38:48;13.30;;;5.18;;
59504;SDS011;45321;53.200;5.814;2023-11-21T01:41:14;14.93;;;5.18;;
59504;SDS011;45321;53.200;5.814;2023-11-21T01:43:40;18.77;;;4.95;;
59504;SDS011;45321;53.200;5.814;2023-11-21T01:46:06;13.57;;;5.93;;
59504;SDS011;45321;53.200;5.814;2023-11-21T01:48:34;11.57;;;4.18;;
59504;SDS011;45321;53.200;5.814;2023-11-21T01:51:00;13.73;;;4.28;;
59504;SDS011;45321;53.200;5.814;2023-11-21T01:53:26;12.55;;;3.90;;
59504;SDS011;45321;53.200;5.814;2023-11-21T01:55:53;11.77;;;3.40;;
59504;SDS011;45321;53.200;5.814;2023-11-21T01:58:21;18.35;;;3.97;;
59504;SDS011;45321;53.200;5.814;2023-11-21T02:00:47;18.25;;;4.25;;
59504;SDS011;45321;53.200;5.814;2023-11-21T02:03:16;12.38;;;3.38;;
59504;SDS011;45321;53.200;5.814;2023-11-21T02:05:42;11.80;;;3.55;;
59504;SDS011;45321;53.200;5.814;2023-11-21T02:08:08;11.27;;;3.58;;
59504;SDS011;45321;53.200;5.814;2023-11-21T02:10:34;16.45;;;4.05;;
59504;SDS011;45321;53.200;5.814;2023-11-21T02:13:02;14.23;;;4.57;;
59504;SDS011;45321;53.200;5.814;2023-11-21T02:15:28;16.02;;;3.75;;
59504;SDS011;45321;53.200;5.814;2023-11-21T02:17:54;17.00;;;3.67;;
59504;SDS011;45321;53.200;5.814;2023-11-21T02:20:20;20.52;;;3.70;;
59504;SDS011;45321;53.200;5.814;2023-11-21T02:22:51;15.95;;;4.35;;
59504;SDS011;45321;53.200;5.814;2023-11-21T02:25:23;15.32;;;3.75;;
59504;SDS011;45321;53.200;5.814;2023-11-21T02:27:49;19.25;;;3.95;;
59504;SDS011;45321;53.200;5.814;2023-11-21T02:30:16;14.15;;;3.00;;
59504;SDS011;45321;53.200;5.814;2023-11-21T02:32:42;17.33;;;3.95;;
59504;SDS011;45321;53.200;5.814;2023-11-21T02:35:08;15.43;;;3.15;;
59504;SDS011;45321;53.200;5.814;2023-11-21T02:37:34;13.88;;;3.95;;
59504;SDS011;45321;53.200;5.814;2023-11-21T02:40:00;15.70;;;3.58;;
59504;SDS011;45321;53.200;5.814;2023-11-21T02:42:30;19.13;;;3.38;;
59504;SDS011;45321;53.200;5.814;2023-11-21T02:44:56;19.52;;;3.58;;
59504;SDS011;45321;53.200;5.814;2023-11-21T02:47:22;17.27;;;3.92;;
59504;SDS011;45321;53.200;5.814;2023-11-21T02:49:48;18.13;;;3.00;;
59504;SDS011;45321;53.200;5.814;2023-11-21T02:52:14;15.32;;;2.97;;
59504;SDS011;45321;53.200;5.814;2023-11-21T02:54:41;17.55;;;3.05;;
59504;SDS011;45321;53.200;5.814;2023-11-21T02:57:07;14.23;;;3.15;;
59504;SDS011;45321;53.200;5.814;2023-11-21T02:59:33;15.27;;;2.78;;
59504;SDS011;45321;53.200;5.814;2023-11-21T03:02:00;13.10;;;3.05;;
59504;SDS011;45321;53.200;5.814;2023-11-21T03:04:26;8.50;;;3.10;;
59504;SDS011;45321;53.200;5.814;2023-11-21T03:06:51;14.52;;;2.90;;
59504;SDS011;45321;53.200;5.814;2023-11-21T03:09:17;11.88;;;3.33;;
59504;SDS011;45321;53.200;5.814;2023-11-21T03:11:42;13.38;;;2.85;;
59504;SDS011;45321;53.200;5.814;2023-11-21T03:14:08;9.35;;;2.78;;
59504;SDS011;45321;53.200;5.814;2023-11-21T03:16:35;7.72;;;2.60;;
59504;SDS011;45321;53.200;5.814;2023-11-21T03:19:00;11.52;;;3.00;;
59504;SDS011;45321;53.200;5.814;2023-11-21T03:21:26;8.75;;;2.80;;
59504;SDS011;45321;53.200;5.814;2023-11-21T03:23:52;6.55;;;2.85;;
59504;SDS011;45321;53.200;5.814;2023-11-21T03:26:18;7.18;;;2.78;;
59504;SDS011;45321;53.200;5.814;2023-11-21T03:28:43;5.30;;;2.40;;
59504;SDS011;45321;53.200;5.814;2023-11-21T03:31:09;4.53;;;2.40;;
59504;SDS011;45321;53.200;5.814;2023-11-21T03:33:35;4.47;;;2.40;;
59504;SDS011;45321;53.200;5.814;2023-11-21T03:36:01;11.32;;;2.72;;
59504;SDS011;45321;53.200;5.814;2023-11-21T03:38:28;8.07;;;3.20;;
59504;SDS011;45321;53.200;5.814;2023-11-21T03:40:53;6.20;;;2.45;;
59504;SDS011;45321;53.200;5.814;2023-11-21T03:43:19;8.02;;;3.13;;
59504;SDS011;45321;53.200;5.814;2023-11-21T03:45:44;8.57;;;3.58;;
59504;SDS011;45321;53.200;5.814;2023-11-21T03:48:11;13.57;;;4.53;;
59504;SDS011;45321;53.200;5.814;2023-11-21T03:50:38;10.75;;;3.50;;
59504;SDS011;45321;53.200;5.814;2023-11-21T03:53:04;11.90;;;2.97;;
59504;SDS011;45321;53.200;5.814;2023-11-21T03:55:29;9.70;;;4.18;;
59504;SDS011;45321;53.200;5.814;2023-11-21T03:57:57;9.68;;;3.65;;
59504;SDS011;45321;53.200;5.814;2023-11-21T04:00:23;15.18;;;4.10;;
59504;SDS011;45321;53.200;5.814;2023-11-21T04:02:49;11.07;;;4.25;;
59504;SDS011;45321;53.200;5.814;2023-11-21T04:05:16;11.30;;;4.32;;
59504;SDS011;45321;53.200;5.814;2023-11-21T04:07:42;16.60;;;4.68;;
59504;SDS011;45321;53.200;5.814;2023-11-21T04:10:08;14.23;;;4.63;;
59504;SDS011;45321;53.200;5.814;2023-11-21T04:12:35;10.85;;;4.80;;
59504;SDS011;45321;53.200;5.814;2023-11-21T04:15:01;13.98;;;5.15;;
59504;SDS011;45321;53.200;5.814;2023-11-21T04:17:27;15.10;;;6.22;;
59504;SDS011;45321;53.200;5.814;2023-11-21T04:19:52;19.02;;;6.00;;
59504;SDS011;45321;53.200;5.814;2023-11-21T04:22:18;14.10;;;6.20;;
59504;SDS011;45321;53.200;5.814;2023-11-21T04:24:46;16.77;;;6.63;;
59504;SDS011;45321;53.200;5.814;2023-11-21T04:27:11;14.48;;;6.32;;
59504;SDS011;45321;53.200;5.814;2023-11-21T04:29:38;14.40;;;6.90;;
59504;SDS011;45321;53.200;5.814;2023-11-21T04:32:04;15.13;;;7.55;;
59504;SDS011;45321;53.200;5.814;2023-11-21T04:34:30;15.25;;;8.20;;
59504;SDS011;45321;53.200;5.814;2023-11-21T04:36:56;16.02;;;8.50;;
59504;SDS011;45321;53.200;5.814;2023-11-21T04:39:22;15.13;;;8.18;;
59504;SDS011;45321;53.200;5.814;2023-11-21T04:41:48;14.95;;;9.18;;
59504;SDS011;45321;53.200;5.814;2023-11-21T04:44:15;18.52;;;9.13;;
59504;SDS011;45321;53.200;5.814;2023-11-21T04:46:41;15.07;;;8.02;;
59504;SDS011;45321;53.200;5.814;2023-11-21T04:49:07;15.23;;;8.60;;
59504;SDS011;45321;53.200;5.814;2023-11-21T04:51:33;16.48;;;8.98;;
59504;SDS011;45321;53.200;5.814;2023-11-21T04:53:59;17.73;;;8.50;;
59504;SDS011;45321;53.200;5.814;2023-11-21T04:56:24;11.52;;;7.10;;
59504;SDS011;45321;53.200;5.814;2023-11-21T04:58:50;13.85;;;7.38;;
59504;SDS011;45321;53.200;5.814;2023-11-21T05:01:16;14.70;;;8.38;;
59504;SDS011;45321;53.200;5.814;2023-11-21T05:03:41;17.23;;;8.60;;
59504;SDS011;45321;53.200;5.814;2023-11-21T05:06:09;17.88;;;9.80;;
59504;SDS011;45321;53.200;5.814;2023-11-21T05:08:35;18.20;;;8.65;;
59504;SDS011;45321;53.200;5.814;2023-11-21T05:11:02;16.98;;;9.15;;
59504;SDS011;45321;53.200;5.814;2023-11-21T05:13:28;18.17;;;9.27;;
59504;SDS011;45321;53.200;5.814;2023-11-21T05:15:54;18.90;;;9.68;;
59504;SDS011;45321;53.200;5.814;2023-11-21T05:18:22;16.85;;;8.93;;
59504;SDS011;45321;53.200;5.814;2023-11-21T05:20:48;14.93;;;8.20;;
59504;SDS011;45321;53.200;5.814;2023-11-21T05:23:13;15.85;;;9.10;;
59504;SDS011;45321;53.200;5.814;2023-11-21T05:25:39;17.02;;;8.93;;
59504;SDS011;45321;53.200;5.814;2023-11-21T05:28:06;17.73;;;9.70;;
59504;SDS011;45321;53.200;5.814;2023-11-21T05:30:32;20.63;;;10.50;;
59504;SDS011;45321;53.200;5.814;2023-11-21T05:32:58;20.50;;;11.80;;
59504;SDS011;45321;53.200;5.814;2023-11-21T05:35:23;20.63;;;11.95;;
59504;SDS011;45321;53.200;5.814;2023-11-21T05:37:49;21.00;;;11.77;;
59504;SDS011;45321;53.200;5.814;2023-11-21T05:40:15;22.10;;;11.80;;
59504;SDS011;45321;53.200;5.814;2023-11-21T05:42:41;20.13;;;11.55;;
59504;SDS011;45321;53.200;5.814;2023-11-21T05:45:07;20.63;;;10.95;;
59504;SDS011;45321;53.200;5.814;2023-11-21T05:47:46;19.52;;;11.48;;
59504;SDS011;45321;53.200;5.814;2023-11-21T05:50:12;22.95;;;12.75;;
59504;SDS011;45321;53.200;5.814;2023-11-21T05:52:43;21.00;;;11.63;;
59504;SDS011;45321;53.200;5.814;2023-11-21T05:55:10;22.27;;;11.93;;
59504;SDS011;45321;53.200;5.814;2023-11-21T05:57:36;19.80;;;11.80;;
59504;SDS011;45321;53.200;5.814;2023-11-21T06:00:04;20.55;;;12.35;;
59504;SDS011;45321;53.200;5.814;2023-11-21T06:02:37;24.40;;;13.48;;
59504;SDS011;45321;53.200;5.814;2023-11-21T06:05:03;23.67;;;13.68;;
59504;SDS011;45321;53.200;5.814;2023-11-21T06:07:30;26.63;;;14.38;;
59504;SDS011;45321;53.200;5.814;2023-11-21T06:09:55;27.17;;;13.95;;
59504;SDS011;45321;53.200;5.814;2023-11-21T06:12:21;25.23;;;13.55;;
59504;SDS011;45321;53.200;5.814;2023-11-21T06:14:47;21.73;;;12.25;;
59504;SDS011;45321;53.200;5.814;2023-11-21T06:17:13;23.83;;;12.13;;
59504;SDS011;45321;53.200;5.814;2023-11-21T06:19:39;21.17;;;11.85;;
59504;SDS011;45321;53.200;5.814;2023-11-21T06:22:05;17.40;;;10.95;;
59504;SDS011;45321;53.200;5.814;2023-11-21T06:24:31;20.30;;;12.07;;
59504;SDS011;45321;53.200;5.814;2023-11-21T06:26:57;19.58;;;12.05;;
59504;SDS011;45321;53.200;5.814;2023-11-21T06:29:22;23.00;;;12.15;;
59504;SDS011;45321;53.200;5.814;2023-11-21T06:31:48;22.05;;;13.70;;
59504;SDS011;45321;53.200;5.814;2023-11-21T06:34:14;24.40;;;13.43;;
59504;SDS011;45321;53.200;5.814;2023-11-21T06:36:40;26.42;;;14.32;;
59504;SDS011;45321;53.200;5.814;2023-11-21T06:39:06;27.45;;;14.70;;
59504;SDS011;45321;53.200;5.814;2023-11-21T06:41:33;25.67;;;14.20;;
59504;SDS011;45321;53.200;5.814;2023-11-21T06:43:59;26.38;;;13.70;;
59504;SDS011;45321;53.200;5.814;2023-11-21T06:46:25;24.50;;;13.45;;
59504;SDS011;45321;53.200;5.814;2023-11-21T06:48:50;24.48;;;13.07;;
59504;SDS011;45321;53.200;5.814;2023-11-21T06:51:16;22.95;;;12.98;;
59504;SDS011;45321;53.200;5.814;2023-11-21T06:53:42;24.92;;;13.43;;
59504;SDS011;45321;53.200;5.814;2023-11-21T06:56:17;21.83;;;12.18;;
59504;SDS011;45321;53.200;5.814;2023-11-21T06:58:46;24.02;;;12.98;;
59504;SDS011;45321;53.200;5.814;2023-11-21T07:01:12;27.05;;;13.55;;
59504;SDS011;45321;53.200;5.814;2023-11-21T07:03:39;23.48;;;12.25;;
59504;SDS011;45321;53.200;5.814;2023-11-21T07:06:04;24.75;;;13.15;;
59504;SDS011;45321;53.200;5.814;2023-11-21T07:08:30;22.00;;;13.80;;
59504;SDS011;45321;53.200;5.814;2023-11-21T07:10:56;25.38;;;13.77;;
59504;SDS011;45321;53.200;5.814;2023-11-21T07:13:22;28.30;;;16.08;;
59504;SDS011;45321;53.200;5.814;2023-11-21T07:15:48;26.08;;;14.55;;
59504;SDS011;45321;53.200;5.814;2023-11-21T07:18:14;24.10;;;15.68;;
59504;SDS011;45321;53.200;5.814;2023-11-21T07:20:40;22.25;;;14.88;;
59504;SDS011;45321;53.200;5.814;2023-11-21T07:23:06;25.50;;;14.85;;
59504;SDS011;45321;53.200;5.814;2023-11-21T07:25:32;21.55;;;14.60;;
59504;SDS011;45321;53.200;5.814;2023-11-21T07:28:01;21.98;;;14.35;;
59504;SDS011;45321;53.200;5.814;2023-11-21T07:30:27;20.98;;;14.80;;
59504;SDS011;45321;53.200;5.814;2023-11-21T07:32:52;19.15;;;11.93;;
59504;SDS011;45321;53.200;5.814;2023-11-21T07:35:18;18.45;;;12.48;;
59504;SDS011;45321;53.200;5.814;2023-11-21T07:37:44;19.92;;;12.23;;
59504;SDS011;45321;53.200;5.814;2023-11-21T07:40:10;19.33;;;12.23;;
59504;SDS011;45321;53.200;5.814;2023-11-21T07:42:37;16.95;;;11.63;;
59504;SDS011;45321;53.200;5.814;2023-11-21T07:45:03;17.52;;;11.60;;
59504;SDS011;45321;53.200;5.814;2023-11-21T07:47:30;21.58;;;12.65;;
59504;SDS011;45321;53.200;5.814;2023-11-21T07:49:59;18.10;;;13.13;;
59504;SDS011;45321;53.200;5.814;2023-11-21T07:52:27;16.95;;;12.57;;
59504;SDS011;45321;53.200;5.814;2023-11-21T07:54:53;21.92;;;12.80;;
59504;SDS011;45321;53.200;5.814;2023-11-21T07:57:19;17.27;;;12.82;;
59504;SDS011;45321;53.200;5.814;2023-11-21T07:59:45;18.20;;;12.57;;
59504;SDS011;45321;53.200;5.814;2023-11-21T08:02:10;18.13;;;12.88;;
59504;SDS011;45321;53.200;5.814;2023-11-21T08:04:36;20.27;;;12.63;;
59504;SDS011;45321;53.200;5.814;2023-11-21T08:07:02;19.38;;;13.13;;
59504;SDS011;45321;53.200;5.814;2023-11-21T08:09:28;18.15;;;11.65;;
59504;SDS011;45321;53.200;5.814;2023-11-21T08:11:55;18.17;;;11.60;;
59504;SDS011;45321;53.200;5.814;2023-11-21T08:14:21;18.13;;;11.75;;
59504;SDS011;45321;53.200;5.814;2023-11-21T08:16:50;17.60;;;11.27;;
59504;SDS011;45321;53.200;5.814;2023-11-21T08:19:16;15.18;;;10.55;;
59504;SDS011;45321;53.200;5.814;2023-11-21T08:21:43;15.77;;;10.85;;
59504;SDS011;45321;53.200;5.814;2023-11-21T08:24:10;17.58;;;10.90;;
59504;SDS011;45321;53.200;5.814;2023-11-21T08:26:36;15.68;;;11.07;;
59504;SDS011;45321;53.200;5.814;2023-11-21T08:29:03;15.95;;;10.70;;
59504;SDS011;45321;53.200;5.814;2023-11-21T08:31:28;14.77;;;10.93;;
59504;SDS011;45321;53.200;5.814;2023-11-21T08:33:54;15.00;;;9.73;;
59504;SDS011;45321;53.200;5.814;2023-11-21T08:36:23;14.60;;;9.68;;
59504;SDS011;45321;53.200;5.814;2023-11-21T08:38:50;19.25;;;11.10;;
59504;SDS011;45321;53.200;5.814;2023-11-21T08:41:20;18.08;;;10.70;;
59504;SDS011;45321;53.200;5.814;2023-11-21T08:43:51;17.50;;;9.77;;
59504;SDS011;45321;53.200;5.814;2023-11-21T08:46:19;13.00;;;9.77;;
59504;SDS011;45321;53.200;5.814;2023-11-21T08:48:44;12.63;;;9.70;;
59504;SDS011;45321;53.200;5.814;2023-11-21T08:51:10;13.63;;;9.77;;
59504;SDS011;45321;53.200;5.814;2023-11-21T08:53:37;14.07;;;9.27;;
59504;SDS011;45321;53.200;5.814;2023-11-21T08:56:03;14.43;;;9.35;;
59504;SDS011;45321;53.200;5.814;2023-11-21T08:58:30;12.30;;;8.55;;
59504;SDS011;45321;53.200;5.814;2023-11-21T09:00:57;11.57;;;8.45;;
59504;SDS011;45321;53.200;5.814;2023-11-21T09:03:23;11.40;;;8.35;;
59504;SDS011;45321;53.200;5.814;2023-11-21T09:05:49;10.15;;;7.07;;
59504;SDS011;45321;53.200;5.814;2023-11-21T09:08:14;9.43;;;7.03;;
59504;SDS011;45321;53.200;5.814;2023-11-21T09:10:40;9.52;;;7.05;;
59504;SDS011;45321;53.200;5.814;2023-11-21T09:13:08;10.52;;;6.35;;
59504;SDS011;45321;53.200;5.814;2023-11-21T09:15:34;8.25;;;6.18;;
59504;SDS011;45321;53.200;5.814;2023-11-21T09:18:00;10.30;;;6.60;;
59504;SDS011;45321;53.200;5.814;2023-11-21T09:20:27;9.60;;;6.82;;
59504;SDS011;45321;53.200;5.814;2023-11-21T09:22:53;10.75;;;8.38;;
59504;SDS011;45321;53.200;5.814;2023-11-21T09:25:20;9.80;;;7.78;;
59504;SDS011;45321;53.200;5.814;2023-11-21T09:27:46;10.93;;;7.95;;
59504;SDS011;45321;53.200;5.814;2023-11-21T09:30:12;12.75;;;8.98;;
59504;SDS011;45321;53.200;5.814;2023-11-21T09:32:39;11.52;;;8.60;;
59504;SDS011;45321;53.200;5.814;2023-11-21T09:35:05;11.40;;;9.23;;
59504;SDS011;45321;53.200;5.814;2023-11-21T09:37:33;13.18;;;10.15;;
59504;SDS011;45321;53.200;5.814;2023-11-21T09:39:59;12.82;;;10.23;;
59504;SDS011;45321;53.200;5.814;2023-11-21T09:42:40;15.32;;;11.00;;
59504;SDS011;45321;53.200;5.814;2023-11-21T09:45:17;15.85;;;10.63;;
59504;SDS011;45321;53.200;5.814;2023-11-21T09:47:50;12.77;;;10.45;;
59504;SDS011;45321;53.200;5.814;2023-11-21T09:50:18;12.35;;;9.85;;
59504;SDS011;45321;53.200;5.814;2023-11-21T09:55:16;10.70;;;8.20;;
59504;SDS011;45321;53.200;5.814;2023-11-21T09:57:47;10.30;;;8.00;;
59504;SDS011;45321;53.200;5.814;2023-11-21T10:00:20;11.13;;;8.63;;
59504;SDS011;45321;53.200;5.814;2023-11-21T10:02:48;11.50;;;8.63;;
59504;SDS011;45321;53.200;5.814;2023-11-21T10:05:18;11.77;;;8.70;;
59504;SDS011;45321;53.200;5.814;2023-11-21T10:07:47;11.98;;;9.13;;
59504;SDS011;45321;53.200;5.814;2023-11-21T10:10:20;14.00;;;9.02;;
59504;SDS011;45321;53.200;5.814;2023-11-21T10:12:50;11.55;;;9.25;;
59504;SDS011;45321;53.200;5.814;2023-11-21T10:15:21;14.07;;;9.82;;
59504;SDS011;45321;53.200;5.814;2023-11-21T10:17:48;12.38;;;9.57;;
59504;SDS011;45321;53.200;5.814;2023-11-21T10:20:15;11.88;;;8.95;;
59504;SDS011;45321;53.200;5.814;2023-11-21T10:22:42;12.18;;;8.85;;
59504;SDS011;45321;53.200;5.814;2023-11-21T10:25:08;11.63;;;8.80;;
59504;SDS011;45321;53.200;5.814;2023-11-21T10:27:35;12.43;;;9.60;;
59504;SDS011;45321;53.200;5.814;2023-11-21T10:30:07;12.07;;;9.60;;
59504;SDS011;45321;53.200;5.814;2023-11-21T10:32:40;12.13;;;10.00;;
59504;SDS011;45321;53.200;5.814;2023-11-21T10:35:08;12.32;;;9.75;;
59504;SDS011;45321;53.200;5.814;2023-11-21T10:37:38;13.18;;;10.25;;
59504;SDS011;45321;53.200;5.814;2023-11-21T10:40:08;11.25;;;10.05;;
59504;SDS011;45321;53.200;5.814;2023-11-21T10:42:40;13.75;;;10.85;;
59504;SDS011;45321;53.200;5.814;2023-11-21T10:45:09;13.02;;;10.55;;
59504;SDS011;45321;53.200;5.814;2023-11-21T10:47:41;12.50;;;9.80;;
59504;SDS011;45321;53.200;5.814;2023-11-21T10:50:07;12.68;;;9.73;;
59504;SDS011;45321;53.200;5.814;2023-11-21T10:52:37;13.75;;;9.95;;
59504;SDS011;45321;53.200;5.814;2023-11-21T10:55:16;14.55;;;10.55;;
59504;SDS011;45321;53.200;5.814;2023-11-21T10:57:43;10.35;;;8.10;;
59504;SDS011;45321;53.200;5.814;2023-11-21T11:00:13;11.05;;;9.18;;
59504;SDS011;45321;53.200;5.814;2023-11-21T11:02:41;9.90;;;8.18;;
59504;SDS011;45321;53.200;5.814;2023-11-21T11:05:08;11.15;;;8.55;;
59504;SDS011;45321;53.200;5.814;2023-11-21T11:07:36;12.35;;;8.60;;
59504;SDS011;45321;53.200;5.814;2023-11-21T11:10:06;9.07;;;7.40;;
59504;SDS011;45321;53.200;5.814;2023-11-21T11:12:33;9.73;;;7.50;;
59504;SDS011;45321;53.200;5.814;2023-11-21T11:15:01;9.48;;;7.85;;
59504;SDS011;45321;53.200;5.814;2023-11-21T11:17:28;13.63;;;9.15;;
59504;SDS011;45321;53.200;5.814;2023-11-21T11:19:54;9.50;;;7.53;;
59504;SDS011;45321;53.200;5.814;2023-11-21T11:22:29;8.75;;;7.43;;
59504;SDS011;45321;53.200;5.814;2023-11-21T11:27:52;12.48;;;8.93;;
59504;SDS011;45321;53.200;5.814;2023-11-21T11:38:47;10.65;;;8.55;;
59504;SDS011;45321;53.200;5.814;2023-11-21T11:41:24;10.32;;;8.68;;
59504;SDS011;45321;53.200;5.814;2023-11-21T11:43:54;12.95;;;10.23;;
59504;SDS011;45321;53.200;5.814;2023-11-21T11:46:20;10.65;;;8.45;;
59504;SDS011;45321;53.200;5.814;2023-11-21T11:49:05;12.77;;;7.20;;
59504;SDS011;45321;53.200;5.814;2023-11-21T11:51:33;8.68;;;6.78;;
59504;SDS011;45321;53.200;5.814;2023-11-21T11:54:01;6.88;;;5.70;;
59504;SDS011;45321;53.200;5.814;2023-11-21T11:56:33;9.52;;;7.35;;
59504;SDS011;45321;53.200;5.814;2023-11-21T11:59:04;8.13;;;6.38;;
59504;SDS011;45321;53.200;5.814;2023-11-21T12:01:31;10.75;;;6.95;;
59504;SDS011;45321;53.200;5.814;2023-11-21T12:06:39;10.30;;;6.20;;
59504;SDS011;45321;53.200;5.814;2023-11-21T12:09:12;9.52;;;6.60;;
59504;SDS011;45321;53.200;5.814;2023-11-21T12:11:47;9.68;;;6.18;;
59504;SDS011;45321;53.200;5.814;2023-11-21T12:14:15;9.55;;;6.03;;
59504;SDS011;45321;53.200;5.814;2023-11-21T12:16:42;9.98;;;5.57;;
59504;SDS011;45321;53.200;5.814;2023-11-21T12:19:08;9.63;;;5.13;;
59504;SDS011;45321;53.200;5.814;2023-11-21T12:21:35;6.78;;;5.40;;
59504;SDS011;45321;53.200;5.814;2023-11-21T12:24:02;7.40;;;5.15;;
59504;SDS011;45321;53.200;5.814;2023-11-21T12:26:28;6.88;;;5.15;;
59504;SDS011;45321;53.200;5.814;2023-11-21T12:28:54;12.52;;;6.45;;
59504;SDS011;45321;53.200;5.814;2023-11-21T12:31:21;9.82;;;5.57;;
59504;SDS011;45321;53.200;5.814;2023-11-21T12:33:47;18.27;;;8.07;;
59504;SDS011;45321;53.200;5.814;2023-11-21T12:36:13;12.15;;;6.72;;
59504;SDS011;45321;53.200;5.814;2023-11-21T12:38:41;9.75;;;5.57;;
59504;SDS011;45321;53.200;5.814;2023-11-21T12:41:08;12.18;;;6.07;;
59504;SDS011;45321;53.200;5.814;2023-11-21T12:43:39;9.38;;;6.10;;
59504;SDS011;45321;53.200;5.814;2023-11-21T12:46:08;9.52;;;5.72;;
59504;SDS011;45321;53.200;5.814;2023-11-21T12:48:41;8.20;;;5.40;;
59504;SDS011;45321;53.200;5.814;2023-11-21T12:51:09;7.32;;;5.07;;
59504;SDS011;45321;53.200;5.814;2023-11-21T12:53:36;10.52;;;5.57;;
59504;SDS011;45321;53.200;5.814;2023-11-21T12:56:07;8.82;;;5.47;;
59504;SDS011;45321;53.200;5.814;2023-11-21T12:58:35;5.18;;;4.10;;
59504;SDS011;45321;53.200;5.814;2023-11-21T13:01:02;4.75;;;4.20;;
59504;SDS011;45321;53.200;5.814;2023-11-21T13:03:30;5.45;;;4.15;;
59504;SDS011;45321;53.200;5.814;2023-11-21T13:05:57;6.40;;;4.78;;
59504;SDS011;45321;53.200;5.814;2023-11-21T13:08:24;5.68;;;4.70;;
59504;SDS011;45321;53.200;5.814;2023-11-21T13:10:52;9.27;;;5.93;;
59504;SDS011;45321;53.200;5.814;2023-11-21T13:13:21;6.65;;;5.35;;
59504;SDS011;45321;53.200;5.814;2023-11-21T13:15:56;8.25;;;5.90;;
59504;SDS011;45321;53.200;5.814;2023-11-21T13:18:26;7.88;;;5.85;;
59504;SDS011;45321;53.200;5.814;2023-11-21T13:20:56;10.95;;;6.40;;
59504;SDS011;45321;53.200;5.814;2023-11-21T13:23:24;9.02;;;6.28;;
59504;SDS011;45321;53.200;5.814;2023-11-21T13:25:50;8.80;;;6.25;;
59504;SDS011;45321;53.200;5.814;2023-11-21T13:28:17;9.93;;;6.00;;
59504;SDS011;45321;53.200;5.814;2023-11-21T13:30:49;7.97;;;5.95;;
59504;SDS011;45321;53.200;5.814;2023-11-21T13:33:18;7.35;;;5.97;;
59504;SDS011;45321;53.200;5.814;2023-11-21T13:35:47;14.07;;;7.53;;
59504;SDS011;45321;53.200;5.814;2023-11-21T13:38:15;10.75;;;6.90;;
59504;SDS011;45321;53.200;5.814;2023-11-21T13:40:46;9.20;;;6.53;;
59504;SDS011;45321;53.200;5.814;2023-11-21T13:43:14;8.88;;;5.75;;
59504;SDS011;45321;53.200;5.814;2023-11-21T13:45:46;7.13;;;5.55;;
59504;SDS011;45321;53.200;5.814;2023-11-21T13:48:15;8.38;;;5.70;;
59504;SDS011;45321;53.200;5.814;2023-11-21T13:50:50;7.68;;;5.70;;
59504;SDS011;45321;53.200;5.814;2023-11-21T13:53:33;9.50;;;7.57;;
59504;SDS011;45321;53.200;5.814;2023-11-21T13:56:02;8.32;;;6.32;;
59504;SDS011;45321;53.200;5.814;2023-11-21T13:58:29;7.82;;;6.05;;
59504;SDS011;45321;53.200;5.814;2023-11-21T14:01:12;8.32;;;6.32;;
59504;SDS011;45321;53.200;5.814;2023-11-21T14:04:03;8.63;;;6.47;;
59504;SDS011;45321;53.200;5.814;2023-11-21T14:06:46;9.43;;;6.68;;
59504;SDS011;45321;53.200;5.814;2023-11-21T14:09:18;9.10;;;6.55;;
59504;SDS011;45321;53.200;5.814;2023-11-21T14:14:21;9.75;;;7.43;;
59504;SDS011;45321;53.200;5.814;2023-11-21T14:16:50;13.50;;;9.00;;
59504;SDS011;45321;53.200;5.814;2023-11-21T14:19:16;11.05;;;8.68;;
59504;SDS011;45321;53.200;5.814;2023-11-21T14:21:43;10.90;;;8.90;;
59504;SDS011;45321;53.200;5.814;2023-11-21T14:24:09;11.63;;;8.95;;
59504;SDS011;45321;53.200;5.814;2023-11-21T14:26:38;11.05;;;7.57;;
59504;SDS011;45321;53.200;5.814;2023-11-21T14:29:10;8.57;;;6.57;;
59504;SDS011;45321;53.200;5.814;2023-11-21T14:31:39;8.18;;;6.63;;
59504;SDS011;45321;53.200;5.814;2023-11-21T14:34:06;10.20;;;6.70;;
59504;SDS011;45321;53.200;5.814;2023-11-21T14:36:35;9.80;;;6.50;;
59504;SDS011;45321;53.200;5.814;2023-11-21T14:39:05;8.25;;;6.70;;
59504;SDS011;45321;53.200;5.814;2023-11-21T14:41:41;10.68;;;6.30;;
59504;SDS011;45321;53.200;5.814;2023-11-21T14:44:09;10.73;;;5.72;;
59504;SDS011;45321;53.200;5.814;2023-11-21T14:46:37;8.10;;;5.72;;
59504;SDS011;45321;53.200;5.814;2023-11-21T14:49:05;11.50;;;6.30;;
59504;SDS011;45321;53.200;5.814;2023-11-21T14:51:47;8.77;;;5.10;;
59504;SDS011;45321;53.200;5.814;2023-11-21T14:54:33;7.50;;;5.30;;
59504;SDS011;45321;53.200;5.814;2023-11-21T14:57:13;8.80;;;5.63;;